createdAt,value
2019-03-23T00:00:30.142Z,1015.86
2019-03-23T00:01:35.653Z,1015.86
2019-03-23T00:02:41.181Z,1015.84
2019-03-23T00:03:46.683Z,1015.83
2019-03-23T00:04:52.194Z,1015.86
2019-03-23T00:05:57.700Z,1015.88
2019-03-23T00:07:03.220Z,1015.91
2019-03-23T00:08:08.740Z,1015.90
2019-03-23T00:09:14.243Z,1015.90
2019-03-23T00:10:19.755Z,1015.93
2019-03-23T00:11:25.270Z,1015.88
2019-03-23T00:12:30.781Z,1015.93
2019-03-23T00:13:36.299Z,1015.92
2019-03-23T00:14:41.805Z,1015.96
2019-03-23T00:15:47.320Z,1015.97
2019-03-23T00:16:52.828Z,1015.97
2019-03-23T00:17:58.338Z,1015.96
2019-03-23T00:19:03.852Z,1016.00
2019-03-23T00:20:09.367Z,1015.97
2019-03-23T00:21:14.874Z,1015.93
2019-03-23T00:22:20.392Z,1015.93
2019-03-23T00:23:25.902Z,1015.96
2019-03-23T00:24:31.420Z,1015.93
2019-03-23T00:25:36.957Z,1015.93
2019-03-23T00:26:42.438Z,1015.96
2019-03-23T00:27:47.948Z,1016.00
2019-03-23T00:28:53.458Z,1016.00
2019-03-23T00:29:58.970Z,1016.04
2019-03-23T00:31:04.485Z,1016.06
2019-03-23T00:32:09.997Z,1016.10
2019-03-23T00:33:15.512Z,1016.14
2019-03-23T00:34:21.022Z,1016.15
2019-03-23T00:35:26.540Z,1016.15
2019-03-23T00:36:41.005Z,1016.19
2019-03-23T00:37:37.559Z,1016.16
2019-03-23T00:38:43.072Z,1016.15
2019-03-23T00:39:48.578Z,1016.24
2019-03-23T00:40:54.090Z,1016.19
2019-03-23T00:41:59.613Z,1016.21
2019-03-23T00:43:05.116Z,1016.21
2019-03-23T00:44:10.636Z,1016.23
2019-03-23T00:45:16.135Z,1016.23
2019-03-23T00:46:21.656Z,1016.24
2019-03-23T00:47:27.180Z,1016.26
2019-03-23T00:48:32.675Z,1016.29
2019-03-23T00:49:38.186Z,1016.30
2019-03-23T00:50:43.699Z,1016.29
2019-03-23T00:51:49.217Z,1016.31
2019-03-23T00:52:54.719Z,1016.34
2019-03-23T00:54:00.227Z,1016.34
2019-03-23T00:55:05.743Z,1016.38
2019-03-23T00:56:11.261Z,1016.41
2019-03-23T00:57:16.765Z,1016.45
2019-03-23T00:58:22.282Z,1016.42
2019-03-23T00:59:27.789Z,1016.50
2019-03-23T01:00:33.302Z,1016.50
2019-03-23T01:01:38.816Z,1016.49
2019-03-23T01:02:44.329Z,1016.47
2019-03-23T01:03:49.841Z,1016.50
2019-03-23T01:04:55.350Z,1016.51
2019-03-23T01:06:00.862Z,1016.48
2019-03-23T01:07:06.369Z,1016.50
2019-03-23T01:08:11.904Z,1016.52
2019-03-23T01:09:17.398Z,1016.50
2019-03-23T01:10:22.909Z,1016.53
2019-03-23T01:11:28.421Z,1016.52
2019-03-23T01:12:33.942Z,1016.53
2019-03-23T01:13:39.443Z,1016.51
2019-03-23T01:14:44.954Z,1016.50
2019-03-23T01:15:50.468Z,1016.51
2019-03-23T01:16:55.978Z,1016.54
2019-03-23T01:18:01.490Z,1016.52
2019-03-23T01:19:06.999Z,1016.56
2019-03-23T01:20:12.513Z,1016.54
2019-03-23T01:21:18.023Z,1016.52
2019-03-23T01:22:23.531Z,1016.57
2019-03-23T01:23:29.046Z,1016.51
2019-03-23T01:24:34.560Z,1016.59
2019-03-23T01:25:40.069Z,1016.57
2019-03-23T01:26:45.582Z,1016.59
2019-03-23T01:27:51.102Z,1016.59
2019-03-23T01:28:56.606Z,1016.62
2019-03-23T01:30:02.120Z,1016.62
2019-03-23T01:31:07.628Z,1016.65
2019-03-23T01:32:13.141Z,1016.65
2019-03-23T01:33:18.655Z,1016.68
2019-03-23T01:34:24.167Z,1016.63
2019-03-23T01:35:29.676Z,1016.65
2019-03-23T01:36:35.189Z,1016.64
2019-03-23T01:37:40.706Z,1016.69
2019-03-23T01:38:46.211Z,1016.65
2019-03-23T01:39:51.723Z,1016.63
2019-03-23T01:40:57.232Z,1016.64
2019-03-23T01:42:02.755Z,1016.66
2019-03-23T01:43:08.248Z,1016.63
2019-03-23T01:44:13.764Z,1016.62
2019-03-23T01:45:19.277Z,1016.62
2019-03-23T01:46:24.799Z,1016.61
2019-03-23T01:47:30.301Z,1016.64
2019-03-23T01:48:35.810Z,1016.58
2019-03-23T01:49:41.323Z,1016.57
2019-03-23T01:50:46.837Z,1016.55
2019-03-23T01:51:52.356Z,1016.56
2019-03-23T01:52:57.857Z,1016.55
2019-03-23T01:54:03.369Z,1016.56
2019-03-23T01:55:08.886Z,1016.57
2019-03-23T01:56:14.391Z,1016.56
2019-03-23T01:57:19.907Z,1016.58
2019-03-23T01:58:25.412Z,1016.57
2019-03-23T01:59:30.928Z,1016.56
2019-03-23T02:00:36.436Z,1016.57
2019-03-23T02:01:41.945Z,1016.57
2019-03-23T02:02:47.629Z,1016.62
2019-03-23T02:03:52.968Z,1016.68
2019-03-23T02:04:58.490Z,1016.66
2019-03-23T02:06:03.995Z,1016.72
2019-03-23T02:07:13.793Z,1016.74
2019-03-23T02:08:15.016Z,1016.72
2019-03-23T02:09:20.527Z,1016.71
2019-03-23T02:10:26.045Z,1016.76
2019-03-23T02:11:31.547Z,1016.72
2019-03-23T02:12:37.059Z,1016.76
2019-03-23T02:13:42.572Z,1016.76
2019-03-23T02:14:48.085Z,1016.76
2019-03-23T02:15:53.601Z,1016.72
2019-03-23T02:16:59.115Z,1016.75
2019-03-23T02:18:04.615Z,1016.74
2019-03-23T02:19:10.135Z,1016.73
2019-03-23T02:20:15.641Z,1016.78
2019-03-23T02:21:21.147Z,1016.82
2019-03-23T02:22:26.658Z,1016.79
2019-03-23T02:23:32.169Z,1016.80
2019-03-23T02:24:37.680Z,1016.80
2019-03-23T02:25:43.191Z,1016.77
2019-03-23T02:26:48.706Z,1016.82
2019-03-23T02:27:54.212Z,1016.87
2019-03-23T02:28:59.725Z,1016.83
2019-03-23T02:30:05.238Z,1016.88
2019-03-23T02:31:10.751Z,1016.91
2019-03-23T02:32:16.327Z,1016.87
2019-03-23T02:33:21.772Z,1016.90
2019-03-23T02:34:27.284Z,1016.91
2019-03-23T02:35:32.800Z,1016.93
2019-03-23T02:36:38.301Z,1016.94
2019-03-23T02:37:43.823Z,1016.96
2019-03-23T02:38:49.340Z,1016.98
2019-03-23T02:39:54.840Z,1017.03
2019-03-23T02:41:00.345Z,1017.01
2019-03-23T02:42:05.857Z,1017.06
2019-03-23T02:43:11.368Z,1017.03
2019-03-23T02:44:16.879Z,1017.02
2019-03-23T02:45:22.396Z,1017.07
2019-03-23T02:46:27.902Z,1017.10
2019-03-23T02:47:33.414Z,1017.12
2019-03-23T02:48:38.924Z,1017.12
2019-03-23T02:49:44.442Z,1017.17
2019-03-23T02:50:49.981Z,1017.17
2019-03-23T02:51:55.454Z,1017.17
2019-03-23T02:53:00.963Z,1017.21
2019-03-23T02:54:06.479Z,1017.23
2019-03-23T02:55:11.989Z,1017.23
2019-03-23T02:56:17.515Z,1017.22
2019-03-23T02:57:23.014Z,1017.23
2019-03-23T02:58:28.527Z,1017.29
2019-03-23T02:59:34.028Z,1017.29
2019-03-23T03:00:39.539Z,1017.31
2019-03-23T03:01:45.051Z,1017.33
2019-03-23T03:02:50.564Z,1017.32
2019-03-23T03:03:56.072Z,1017.35
2019-03-23T03:05:01.598Z,1017.39
2019-03-23T03:06:07.093Z,1017.38
2019-03-23T03:07:12.602Z,1017.34
2019-03-23T03:08:18.112Z,1017.35
2019-03-23T03:09:23.623Z,1017.42
2019-03-23T03:10:29.133Z,1017.43
2019-03-23T03:11:34.645Z,1017.46
2019-03-23T03:12:40.158Z,1017.48
2019-03-23T03:13:45.669Z,1017.54
2019-03-23T03:14:51.176Z,1017.52
2019-03-23T03:15:56.683Z,1017.53
2019-03-23T03:17:02.191Z,1017.51
2019-03-23T03:18:07.710Z,1017.54
2019-03-23T03:19:13.226Z,1017.55
2019-03-23T03:20:18.727Z,1017.57
2019-03-23T03:21:24.236Z,1017.56
2019-03-23T03:22:29.747Z,1017.61
2019-03-23T03:23:35.262Z,1017.61
2019-03-23T03:24:40.766Z,1017.62
2019-03-23T03:25:46.279Z,1017.57
2019-03-23T03:26:51.788Z,1017.62
2019-03-23T03:27:57.296Z,1017.62
2019-03-23T03:29:02.803Z,1017.61
2019-03-23T03:30:08.331Z,1017.62
2019-03-23T03:31:13.838Z,1017.65
2019-03-23T03:32:19.342Z,1017.67
2019-03-23T03:33:24.847Z,1017.70
2019-03-23T03:34:30.355Z,1017.76
2019-03-23T03:35:35.870Z,1017.77
2019-03-23T03:36:41.376Z,1017.77
2019-03-23T03:37:56.434Z,1017.81
2019-03-23T03:38:52.398Z,1017.83
2019-03-23T03:39:57.905Z,1017.77
2019-03-23T03:41:03.414Z,1017.79
2019-03-23T03:42:08.924Z,1017.81
2019-03-23T03:43:14.434Z,1017.76
2019-03-23T03:44:19.942Z,1017.79
2019-03-23T03:45:25.486Z,1017.80
2019-03-23T03:46:30.963Z,1017.84
2019-03-23T03:47:36.475Z,1017.81
2019-03-23T03:48:41.981Z,1017.82
2019-03-23T03:49:47.490Z,1017.79
2019-03-23T03:50:53.000Z,1017.79
2019-03-23T03:51:58.514Z,1017.75
2019-03-23T03:53:04.023Z,1017.76
2019-03-23T03:54:09.528Z,1017.77
2019-03-23T03:55:15.039Z,1017.75
2019-03-23T03:56:20.545Z,1017.78
2019-03-23T03:57:26.058Z,1017.78
2019-03-23T03:58:31.568Z,1017.80
2019-03-23T03:59:37.076Z,1017.84
2019-03-23T04:00:42.588Z,1017.85
2019-03-23T04:01:48.096Z,1017.91
2019-03-23T04:02:53.599Z,1017.93
2019-03-23T04:03:59.113Z,1017.91
2019-03-23T04:05:04.630Z,1017.94
2019-03-23T04:06:10.132Z,1017.93
2019-03-23T04:07:15.642Z,1017.91
2019-03-23T04:08:21.161Z,1017.96
2019-03-23T04:09:26.671Z,1017.90
2019-03-23T04:10:32.174Z,1017.93
2019-03-23T04:11:37.680Z,1017.92
2019-03-23T04:12:43.188Z,1017.89
2019-03-23T04:13:48.701Z,1017.90
2019-03-23T04:14:54.205Z,1017.89
2019-03-23T04:15:59.716Z,1017.89
2019-03-23T04:17:05.226Z,1017.92
2019-03-23T04:18:10.739Z,1017.90
2019-03-23T04:19:16.247Z,1017.93
2019-03-23T04:20:21.758Z,1017.95
2019-03-23T04:21:27.269Z,1017.93
2019-03-23T04:22:32.773Z,1017.95
2019-03-23T04:23:38.281Z,1017.99
2019-03-23T04:24:43.797Z,1017.94
2019-03-23T04:25:49.315Z,1017.95
2019-03-23T04:26:54.812Z,1017.96
2019-03-23T04:28:00.320Z,1017.95
2019-03-23T04:29:05.831Z,1017.95
2019-03-23T04:30:11.352Z,1017.97
2019-03-23T04:31:16.863Z,1017.99
2019-03-23T04:32:22.371Z,1017.94
2019-03-23T04:33:27.870Z,1017.93
2019-03-23T04:34:33.375Z,1017.92
2019-03-23T04:35:38.885Z,1017.93
2019-03-23T04:36:44.399Z,1017.92
2019-03-23T04:37:49.907Z,1017.94
2019-03-23T04:38:55.421Z,1017.92
2019-03-23T04:40:00.933Z,1017.92
2019-03-23T04:41:06.437Z,1017.95
2019-03-23T04:42:11.945Z,1017.96
2019-03-23T04:43:17.451Z,1017.96
2019-03-23T04:44:22.959Z,1018.00
2019-03-23T04:45:28.472Z,1018.03
2019-03-23T04:46:33.979Z,1018.06
2019-03-23T04:47:39.492Z,1018.06
2019-03-23T04:48:45.000Z,1018.02
2019-03-23T04:49:50.515Z,1018.05
2019-03-23T04:50:56.023Z,1018.08
2019-03-23T04:52:01.531Z,1018.08
2019-03-23T04:53:07.039Z,1018.08
2019-03-23T04:54:12.550Z,1018.06
2019-03-23T04:55:18.056Z,1018.11
2019-03-23T04:56:23.564Z,1018.13
2019-03-23T04:57:29.074Z,1018.18
2019-03-23T04:58:34.586Z,1018.19
2019-03-23T04:59:40.094Z,1018.19
2019-03-23T05:00:45.605Z,1018.16
2019-03-23T05:01:51.104Z,1018.23
2019-03-23T05:02:56.621Z,1018.25
2019-03-23T05:04:02.129Z,1018.28
2019-03-23T05:05:07.650Z,1018.31
2019-03-23T05:06:13.151Z,1018.37
2019-03-23T05:07:18.656Z,1018.36
2019-03-23T05:08:32.964Z,1018.36
2019-03-23T05:09:29.686Z,1018.38
2019-03-23T05:10:35.187Z,1018.38
2019-03-23T05:11:40.697Z,1018.43
2019-03-23T05:12:46.212Z,1018.42
2019-03-23T05:13:51.714Z,1018.39
2019-03-23T05:14:57.233Z,1018.34
2019-03-23T05:16:02.733Z,1018.37
2019-03-23T05:17:08.240Z,1018.34
2019-03-23T05:18:13.753Z,1018.36
2019-03-23T05:19:19.262Z,1018.33
2019-03-23T05:20:24.778Z,1018.33
2019-03-23T05:21:30.280Z,1018.32
2019-03-23T05:22:35.788Z,1018.32
2019-03-23T05:23:41.300Z,1018.33
2019-03-23T05:24:46.807Z,1018.28
2019-03-23T05:25:52.315Z,1018.31
2019-03-23T05:26:57.827Z,1018.29
2019-03-23T05:28:03.333Z,1018.37
2019-03-23T05:29:08.845Z,1018.40
2019-03-23T05:30:14.354Z,1018.43
2019-03-23T05:31:19.862Z,1018.44
2019-03-23T05:32:25.376Z,1018.45
2019-03-23T05:33:30.884Z,1018.44
2019-03-23T05:34:36.389Z,1018.46
2019-03-23T05:35:41.903Z,1018.43
2019-03-23T05:36:47.408Z,1018.43
2019-03-23T05:37:52.922Z,1018.39
2019-03-23T05:38:58.428Z,1018.40
2019-03-23T05:40:03.939Z,1018.41
2019-03-23T05:41:09.453Z,1018.40
2019-03-23T05:42:14.959Z,1018.46
2019-03-23T05:43:20.465Z,1018.47
2019-03-23T05:44:25.975Z,1018.48
2019-03-23T05:45:31.484Z,1018.55
2019-03-23T05:46:36.997Z,1018.57
2019-03-23T05:47:42.507Z,1018.62
2019-03-23T05:48:48.015Z,1018.67
2019-03-23T05:49:53.522Z,1018.69
2019-03-23T05:50:59.031Z,1018.67
2019-03-23T05:52:04.541Z,1018.71
2019-03-23T05:53:10.053Z,1018.69
2019-03-23T05:54:15.556Z,1018.74
2019-03-23T05:55:21.066Z,1018.72
2019-03-23T05:56:26.579Z,1018.74
2019-03-23T05:57:32.087Z,1018.72
2019-03-23T05:58:37.597Z,1018.73
2019-03-23T05:59:43.110Z,1018.78
2019-03-23T06:00:48.622Z,1018.78
2019-03-23T06:01:54.123Z,1018.80
2019-03-23T06:02:59.630Z,1018.79
2019-03-23T06:04:05.139Z,1018.83
2019-03-23T06:05:10.653Z,1018.85
2019-03-23T06:06:16.173Z,1018.91
2019-03-23T06:07:21.674Z,1018.89
2019-03-23T06:08:27.180Z,1018.87
2019-03-23T06:09:32.690Z,1018.89
2019-03-23T06:10:38.198Z,1018.90
2019-03-23T06:11:43.707Z,1018.94
2019-03-23T06:12:49.223Z,1018.96
2019-03-23T06:13:54.728Z,1018.95
2019-03-23T06:15:00.418Z,1018.93
2019-03-23T06:16:05.744Z,1018.94
2019-03-23T06:17:11.251Z,1019.00
2019-03-23T06:18:16.763Z,1019.01
2019-03-23T06:19:22.268Z,1018.99
2019-03-23T06:20:27.780Z,1019.03
2019-03-23T06:21:33.286Z,1019.07
2019-03-23T06:22:38.798Z,1019.04
2019-03-23T06:23:44.309Z,1019.06
2019-03-23T06:24:49.829Z,1019.04
2019-03-23T06:25:55.332Z,1019.02
2019-03-23T06:27:00.840Z,1019.06
2019-03-23T06:28:06.345Z,1019.02
2019-03-23T06:29:11.852Z,1019.03
2019-03-23T06:30:17.363Z,1019.09
2019-03-23T06:31:22.875Z,1019.11
2019-03-23T06:32:28.385Z,1019.12
2019-03-23T06:33:33.892Z,1019.14
2019-03-23T06:34:39.400Z,1019.21
2019-03-23T06:35:44.905Z,1019.19
2019-03-23T06:36:50.420Z,1019.18
2019-03-23T06:37:55.930Z,1019.22
2019-03-23T06:39:05.757Z,1019.19
2019-03-23T06:40:06.946Z,1019.13
2019-03-23T06:41:12.459Z,1019.15
2019-03-23T06:42:17.975Z,1019.15
2019-03-23T06:43:23.475Z,1019.12
2019-03-23T06:44:28.986Z,1019.14
2019-03-23T06:45:34.493Z,1019.20
2019-03-23T06:46:39.999Z,1019.19
2019-03-23T06:47:45.537Z,1019.15
2019-03-23T06:48:51.021Z,1019.14
2019-03-23T06:49:56.534Z,1019.14
2019-03-23T06:51:03.285Z,1019.19
2019-03-23T06:52:07.545Z,1019.19
2019-03-23T06:53:13.058Z,1019.19
2019-03-23T06:54:18.566Z,1019.18
2019-03-23T06:55:24.078Z,1019.16
2019-03-23T06:56:29.585Z,1019.17
2019-03-23T06:57:35.093Z,1019.15
2019-03-23T06:58:40.603Z,1019.16
2019-03-23T06:59:46.119Z,1019.18
2019-03-23T07:00:51.629Z,1019.18
2019-03-23T07:01:57.135Z,1019.19
2019-03-23T07:03:02.639Z,1019.19
2019-03-23T07:04:08.150Z,1019.21
2019-03-23T07:05:13.659Z,1019.19
2019-03-23T07:06:19.169Z,1019.13
2019-03-23T07:07:24.679Z,1019.14
2019-03-23T07:08:32.225Z,1019.18
2019-03-23T07:09:35.694Z,1019.20
2019-03-23T07:10:41.207Z,1019.19
2019-03-23T07:11:46.712Z,1019.19
2019-03-23T07:12:52.224Z,1019.19
2019-03-23T07:13:57.734Z,1019.22
2019-03-23T07:15:03.244Z,1019.27
2019-03-23T07:16:08.751Z,1019.22
2019-03-23T07:17:14.262Z,1019.17
2019-03-23T07:18:19.780Z,1019.18
2019-03-23T07:19:25.287Z,1019.22
2019-03-23T07:20:30.792Z,1019.24
2019-03-23T07:21:36.298Z,1019.25
2019-03-23T07:22:41.810Z,1019.27
2019-03-23T07:23:47.318Z,1019.31
2019-03-23T07:24:52.832Z,1019.29
2019-03-23T07:25:58.336Z,1019.31
2019-03-23T07:27:03.845Z,1019.31
2019-03-23T07:28:09.358Z,1019.32
2019-03-23T07:29:14.866Z,1019.31
2019-03-23T07:30:20.382Z,1019.31
2019-03-23T07:31:25.881Z,1019.36
2019-03-23T07:32:31.391Z,1019.35
2019-03-23T07:33:36.903Z,1019.37
2019-03-23T07:34:42.412Z,1019.40
2019-03-23T07:35:47.953Z,1019.40
2019-03-23T07:36:53.432Z,1019.41
2019-03-23T07:37:58.948Z,1019.38
2019-03-23T07:39:04.455Z,1019.40
2019-03-23T07:40:09.958Z,1019.39
2019-03-23T07:41:15.473Z,1019.41
2019-03-23T07:42:20.981Z,1019.43
2019-03-23T07:43:26.487Z,1019.43
2019-03-23T07:44:31.998Z,1019.48
2019-03-23T07:45:37.508Z,1019.48
2019-03-23T07:46:43.020Z,1019.41
2019-03-23T07:47:48.526Z,1019.42
2019-03-23T07:48:54.046Z,1019.44
2019-03-23T07:49:59.551Z,1019.46
2019-03-23T07:51:05.057Z,1019.41
2019-03-23T07:52:10.564Z,1019.45
2019-03-23T07:53:16.089Z,1019.47
2019-03-23T07:54:21.583Z,1019.49
2019-03-23T07:55:27.101Z,1019.53
2019-03-23T07:56:32.613Z,1019.50
2019-03-23T07:57:38.120Z,1019.48
2019-03-23T07:58:43.633Z,1019.51
2019-03-23T07:59:49.138Z,1019.51
2019-03-23T08:00:54.642Z,1019.52
2019-03-23T08:02:00.156Z,1019.50
2019-03-23T08:03:05.662Z,1019.48
2019-03-23T08:04:11.172Z,1019.51
2019-03-23T08:05:16.684Z,1019.44
2019-03-23T08:06:22.194Z,1019.50
2019-03-23T08:07:27.702Z,1019.48
2019-03-23T08:08:33.208Z,1019.50
2019-03-23T08:09:38.723Z,1019.43
2019-03-23T08:10:44.230Z,1019.43
2019-03-23T08:11:49.740Z,1019.43
2019-03-23T08:12:55.261Z,1019.47
2019-03-23T08:14:00.763Z,1019.47
2019-03-23T08:15:06.274Z,1019.47
2019-03-23T08:16:11.783Z,1019.46
2019-03-23T08:17:17.304Z,1019.52
2019-03-23T08:18:22.800Z,1019.50
2019-03-23T08:19:28.314Z,1019.47
2019-03-23T08:20:33.821Z,1019.50
2019-03-23T08:21:39.332Z,1019.47
2019-03-23T08:22:44.844Z,1019.49
2019-03-23T08:23:50.351Z,1019.46
2019-03-23T08:24:55.865Z,1019.53
2019-03-23T08:26:01.371Z,1019.51
2019-03-23T08:27:06.880Z,1019.55
2019-03-23T08:28:12.394Z,1019.53
2019-03-23T08:29:17.907Z,1019.47
2019-03-23T08:30:23.420Z,1019.45
2019-03-23T08:31:28.920Z,1019.48
2019-03-23T08:32:34.432Z,1019.49
2019-03-23T08:33:39.946Z,1019.45
2019-03-23T08:34:45.455Z,1019.47
2019-03-23T08:35:50.961Z,1019.50
2019-03-23T08:36:56.470Z,1019.50
2019-03-23T08:38:01.978Z,1019.53
2019-03-23T08:39:07.491Z,1019.53
2019-03-23T08:40:13.003Z,1019.53
2019-03-23T08:41:18.512Z,1019.54
2019-03-23T08:42:24.020Z,1019.57
2019-03-23T08:43:29.532Z,1019.56
2019-03-23T08:44:35.040Z,1019.55
2019-03-23T08:45:40.551Z,1019.56
2019-03-23T08:46:46.385Z,1019.60
2019-03-23T08:47:51.577Z,1019.62
2019-03-23T08:48:57.080Z,1019.62
2019-03-23T08:50:02.592Z,1019.65
2019-03-23T08:51:08.102Z,1019.59
2019-03-23T08:52:13.606Z,1019.57
2019-03-23T08:53:19.120Z,1019.59
2019-03-23T08:54:24.634Z,1019.61
2019-03-23T08:55:30.142Z,1019.59
2019-03-23T08:56:37.359Z,1019.62
2019-03-23T08:57:41.482Z,1019.63
2019-03-23T08:58:46.669Z,1019.61
2019-03-23T08:59:52.184Z,1019.59
2019-03-23T09:00:57.695Z,1019.57
2019-03-23T09:02:03.207Z,1019.59
2019-03-23T09:03:08.714Z,1019.58
2019-03-23T09:04:14.219Z,1019.56
2019-03-23T09:05:19.737Z,1019.59
2019-03-23T09:06:25.244Z,1019.55
2019-03-23T09:07:30.750Z,1019.50
2019-03-23T09:08:36.278Z,1019.50
2019-03-23T09:09:41.772Z,1019.50
2019-03-23T09:10:47.293Z,1019.52
2019-03-23T09:11:52.798Z,1019.51
2019-03-23T09:12:58.307Z,1019.51
2019-03-23T09:14:03.810Z,1019.50
2019-03-23T09:15:09.324Z,1019.51
2019-03-23T09:16:14.836Z,1019.54
2019-03-23T09:17:20.346Z,1019.50
2019-03-23T09:18:25.854Z,1019.56
2019-03-23T09:19:31.367Z,1019.56
2019-03-23T09:20:36.878Z,1019.57
2019-03-23T09:21:42.385Z,1019.54
2019-03-23T09:22:47.898Z,1019.55
2019-03-23T09:23:53.409Z,1019.52
2019-03-23T09:24:58.921Z,1019.54
2019-03-23T09:26:04.436Z,1019.54
2019-03-23T09:27:09.942Z,1019.55
2019-03-23T09:28:15.452Z,1019.59
2019-03-23T09:29:20.954Z,1019.60
2019-03-23T09:30:26.467Z,1019.64
2019-03-23T09:31:31.990Z,1019.64
2019-03-23T09:32:37.498Z,1019.64
2019-03-23T09:33:43.011Z,1019.64
2019-03-23T09:34:48.507Z,1019.64
2019-03-23T09:35:54.021Z,1019.64
2019-03-23T09:36:59.545Z,1019.67
2019-03-23T09:38:05.045Z,1019.69
2019-03-23T09:39:10.553Z,1019.69
2019-03-23T09:40:16.065Z,1019.74
2019-03-23T09:41:21.583Z,1019.74
2019-03-23T09:42:27.088Z,1019.80
2019-03-23T09:43:32.603Z,1019.78
2019-03-23T09:44:38.104Z,1019.84
2019-03-23T09:45:43.611Z,1019.83
2019-03-23T09:46:49.127Z,1019.76
2019-03-23T09:47:54.642Z,1019.79
2019-03-23T09:49:00.152Z,1019.82
2019-03-23T09:50:05.655Z,1019.85
2019-03-23T09:51:11.179Z,1019.90
2019-03-23T09:52:16.679Z,1019.86
2019-03-23T09:53:22.195Z,1019.88
2019-03-23T09:54:27.703Z,1019.88
2019-03-23T09:55:33.207Z,1019.89
2019-03-23T09:56:38.711Z,1019.92
2019-03-23T09:57:44.229Z,1019.92
2019-03-23T09:58:49.748Z,1019.92
2019-03-23T09:59:55.256Z,1019.96
2019-03-23T10:01:00.761Z,1019.91
2019-03-23T10:02:06.274Z,1019.90
2019-03-23T10:03:11.784Z,1019.96
2019-03-23T10:04:17.296Z,1019.92
2019-03-23T10:05:22.805Z,1019.95
2019-03-23T10:06:28.319Z,1019.98
2019-03-23T10:07:33.830Z,1019.99
2019-03-23T10:08:39.341Z,1020.03
2019-03-23T10:09:44.852Z,1020.04
2019-03-23T10:10:50.367Z,1020.04
2019-03-23T10:11:55.873Z,1020.05
2019-03-23T10:13:01.376Z,1020.02
2019-03-23T10:14:06.893Z,1020.03
2019-03-23T10:15:12.405Z,1020.06
2019-03-23T10:16:17.912Z,1020.02
2019-03-23T10:17:23.425Z,1020.05
2019-03-23T10:18:28.933Z,1020.00
2019-03-23T10:19:34.443Z,1020.01
2019-03-23T10:20:39.954Z,1020.02
2019-03-23T10:21:45.468Z,1019.99
2019-03-23T10:22:50.970Z,1019.98
2019-03-23T10:23:56.481Z,1020.02
2019-03-23T10:25:01.998Z,1020.01
2019-03-23T10:26:07.524Z,1020.04
2019-03-23T10:27:13.016Z,1020.04
2019-03-23T10:28:18.532Z,1020.04
2019-03-23T10:29:24.038Z,1020.03
2019-03-23T10:30:29.554Z,1019.99
2019-03-23T10:31:35.073Z,1019.92
2019-03-23T10:32:40.571Z,1019.95
2019-03-23T10:33:46.074Z,1019.94
2019-03-23T10:34:51.594Z,1019.96
2019-03-23T10:35:57.103Z,1019.92
2019-03-23T10:37:02.618Z,1019.94
2019-03-23T10:38:08.120Z,1019.93
2019-03-23T10:39:13.631Z,1019.94
2019-03-23T10:40:19.144Z,1019.91
2019-03-23T10:41:24.657Z,1019.93
2019-03-23T10:42:30.170Z,1019.93
2019-03-23T10:43:35.674Z,1019.92
2019-03-23T10:44:41.186Z,1019.94
2019-03-23T10:45:46.698Z,1019.96
2019-03-23T10:46:52.205Z,1019.99
2019-03-23T10:49:03.251Z,1019.93
2019-03-23T10:50:08.745Z,1019.98
2019-03-23T10:51:14.250Z,1019.94
2019-03-23T10:52:19.762Z,1019.91
2019-03-23T10:53:25.277Z,1019.91
2019-03-23T10:54:30.778Z,1019.90
2019-03-23T10:55:36.293Z,1019.91
2019-03-23T10:56:41.801Z,1019.88
2019-03-23T10:57:47.316Z,1019.82
2019-03-23T10:58:52.820Z,1019.88
2019-03-23T10:59:58.359Z,1019.88
2019-03-23T11:01:03.857Z,1019.88
2019-03-23T11:02:09.358Z,1019.83
2019-03-23T11:03:14.867Z,1019.79
2019-03-23T11:04:20.378Z,1019.84
2019-03-23T11:05:25.895Z,1019.84
2019-03-23T11:06:31.401Z,1019.83
2019-03-23T11:07:36.912Z,1019.84
2019-03-23T11:08:42.424Z,1019.86
2019-03-23T11:09:47.932Z,1019.85
2019-03-23T11:10:53.453Z,1019.85
2019-03-23T11:11:58.955Z,1019.81
2019-03-23T11:13:04.470Z,1019.81
2019-03-23T11:14:09.984Z,1019.88
2019-03-23T11:15:15.493Z,1019.86
2019-03-23T11:16:20.996Z,1019.84
2019-03-23T11:17:26.510Z,1019.89
2019-03-23T11:18:32.027Z,1019.86
2019-03-23T11:19:37.531Z,1019.90
2019-03-23T11:20:43.063Z,1019.89
2019-03-23T11:21:48.561Z,1019.85
2019-03-23T11:22:54.066Z,1019.85
2019-03-23T11:23:59.594Z,1019.89
2019-03-23T11:25:05.106Z,1019.91
2019-03-23T11:26:10.602Z,1019.96
2019-03-23T11:27:16.116Z,1019.94
2019-03-23T11:28:21.623Z,1019.97
2019-03-23T11:29:27.137Z,1020.01
2019-03-23T11:30:32.662Z,1020.02
2019-03-23T11:31:38.161Z,1020.03
2019-03-23T11:32:43.703Z,1020.02
2019-03-23T11:33:49.183Z,1020.03
2019-03-23T11:34:54.714Z,1020.03
2019-03-23T11:36:00.207Z,1020.07
2019-03-23T11:37:05.831Z,1020.06
2019-03-23T11:38:11.240Z,1020.05
2019-03-23T11:39:16.743Z,1020.04
2019-03-23T11:40:22.254Z,1020.00
2019-03-23T11:41:27.782Z,1020.06
2019-03-23T11:42:33.289Z,1020.05
2019-03-23T11:43:38.790Z,1020.01
2019-03-23T11:44:44.340Z,1020.09
2019-03-23T11:45:49.803Z,1020.07
2019-03-23T11:46:55.334Z,1020.12
2019-03-23T11:48:00.842Z,1020.08
2019-03-23T11:49:06.354Z,1020.08
2019-03-23T11:50:11.876Z,1020.06
2019-03-23T11:51:17.374Z,1020.05
2019-03-23T11:52:22.889Z,1020.07
2019-03-23T11:53:28.398Z,1020.09
2019-03-23T11:54:33.909Z,1020.11
2019-03-23T11:55:39.419Z,1020.12
2019-03-23T11:56:44.930Z,1020.12
2019-03-23T11:57:50.452Z,1020.08
2019-03-23T11:58:55.975Z,1020.10
2019-03-23T12:00:01.481Z,1020.09
2019-03-23T12:01:06.983Z,1020.12
2019-03-23T12:02:12.500Z,1020.14
2019-03-23T12:03:18.011Z,1020.13
2019-03-23T12:04:24.983Z,1020.13
2019-03-23T12:05:29.032Z,1020.11
2019-03-23T12:06:34.546Z,1020.10
2019-03-23T12:07:40.060Z,1020.04
2019-03-23T12:08:45.569Z,1020.03
2019-03-23T12:09:51.082Z,1020.01
2019-03-23T12:11:02.812Z,1020.00
2019-03-23T12:12:02.109Z,1020.04
2019-03-23T12:13:07.620Z,1020.01
2019-03-23T12:14:13.134Z,1020.02
2019-03-23T12:15:18.651Z,1019.96
2019-03-23T12:16:24.160Z,1020.01
2019-03-23T12:17:29.671Z,1020.00
2019-03-23T12:18:35.183Z,1020.00
2019-03-23T12:19:40.704Z,1019.97
2019-03-23T12:20:46.207Z,1019.97
2019-03-23T12:21:51.722Z,1020.01
2019-03-23T12:22:57.243Z,1020.01
2019-03-23T12:24:02.747Z,1019.99
2019-03-23T12:25:08.262Z,1020.03
2019-03-23T12:26:13.776Z,1020.02
2019-03-23T12:27:19.281Z,1020.00
2019-03-23T12:28:24.804Z,1020.01
2019-03-23T12:29:30.321Z,1020.01
2019-03-23T12:30:35.829Z,1020.00
2019-03-23T12:31:41.341Z,1020.00
2019-03-23T12:32:46.852Z,1020.01
2019-03-23T12:33:52.370Z,1020.01
2019-03-23T12:34:57.877Z,1020.00
2019-03-23T12:36:03.391Z,1020.00
2019-03-23T12:37:08.909Z,1019.96
2019-03-23T12:38:14.429Z,1019.99
2019-03-23T12:39:19.933Z,1019.95
2019-03-23T12:40:25.449Z,1019.97
2019-03-23T12:41:30.960Z,1019.96
2019-03-23T12:42:36.473Z,1019.97
2019-03-23T12:43:42.040Z,1019.96
2019-03-23T12:44:47.500Z,1019.94
2019-03-23T12:45:53.013Z,1019.93
2019-03-23T12:46:58.527Z,1019.93
2019-03-23T12:48:04.040Z,1019.88
2019-03-23T12:49:09.554Z,1019.92
2019-03-23T12:50:15.069Z,1019.96
2019-03-23T12:51:20.577Z,1019.88
2019-03-23T12:52:26.104Z,1019.92
2019-03-23T12:53:31.616Z,1019.90
2019-03-23T12:54:37.121Z,1019.88
2019-03-23T12:55:42.633Z,1019.91
2019-03-23T12:56:48.149Z,1019.91
2019-03-23T12:57:53.665Z,1019.90
2019-03-23T12:58:59.186Z,1019.93
2019-03-23T13:00:04.691Z,1019.92
2019-03-23T13:01:10.207Z,1019.91
2019-03-23T13:02:15.717Z,1019.93
2019-03-23T13:03:21.226Z,1019.90
2019-03-23T13:04:26.745Z,1019.87
2019-03-23T13:05:32.258Z,1019.91
2019-03-23T13:06:37.772Z,1019.94
2019-03-23T13:07:43.281Z,1019.93
2019-03-23T13:08:48.814Z,1019.87
2019-03-23T13:09:54.327Z,1019.88
2019-03-23T13:10:59.825Z,1019.86
2019-03-23T13:12:05.336Z,1019.88
2019-03-23T13:13:10.856Z,1019.85